Time,TemperatureF,DewpointF,PressureIn,WindDirection,WindDirectionDegrees,WindSpeedMPH,WindSpeedGustMPH,Humidity,HourlyPrecipIn,Conditions,Clouds,dailyrainin,SoftwareType,DateUTC
2013-01-24 00:03:00,3.1,-5.1,30.39,NW,318,3.0,7.0,68,0.00,,---,0.00,VWS V14.00,2013-01-24 06:03:00,
2013-01-24 00:08:00,3.0,-5.2,30.40,North,360,2.0,12.0,68,0.00,,---,0.00,VWS V14.00,2013-01-24 06:08:00,
2013-01-24 00:13:00,2.9,-5.2,30.40,NNW,345,4.0,7.0,68,0.00,,---,0.00,VWS V14.00,2013-01-24 06:13:00,
2013-01-24 00:18:00,2.8,-5.3,30.41,NW,315,4.0,10.0,68,0.00,,---,0.00,VWS V14.00,2013-01-24 06:18:00,
2013-01-24 00:23:00,2.7,-5.4,30.41,NW,319,5.0,7.0,68,0.00,,---,0.00,VWS V14.00,2013-01-24 06:23:00,
2013-01-24 00:28:00,2.6,-5.5,30.41,NW,318,0.0,3.0,68,0.00,,---,0.00,VWS V14.00,2013-01-24 06:28:00,
2013-01-24 00:33:00,2.4,-5.7,30.42,NNW,328,5.0,6.0,68,0.00,,---,0.00,VWS V14.00,2013-01-24 06:33:00,
2013-01-24 00:38:00,2.3,-5.5,30.42,West,279,5.0,5.0,69,0.00,,---,0.00,VWS V14.00,2013-01-24 06:38:00,
2013-01-24 00:43:00,2.2,-5.6,30.42,NNW,331,2.0,9.0,69,0.00,,---,0.00,VWS V14.00,2013-01-24 06:43:00,
2013-01-24 00:48:00,2.1,-5.7,30.43,NW,319,4.0,12.0,69,0.00,,---,0.00,VWS V14.00,2013-01-24 06:48:00,
2013-01-24 00:53:00,2.0,-5.8,30.43,NW,311,3.0,7.0,69,0.00,,---,0.00,VWS V14.00,2013-01-24 06:53:00,
2013-01-24 00:58:00,1.9,-5.9,30.44,NNW,339,1.0,5.0,69,0.00,,---,0.00,VWS V14.00,2013-01-24 06:58:00,
2013-01-24 01:03:00,1.7,-5.8,30.44,WNW,303,5.0,6.0,70,0.00,,---,0.00,VWS V14.00,2013-01-24 07:03:00,
2013-01-24 01:08:00,1.5,-6.0,30.45,NW,308,2.0,7.0,70,0.00,,---,0.00,VWS V14.00,2013-01-24 07:08:00,
2013-01-24 01:13:00,1.4,-6.1,30.45,NW,317,1.0,6.0,70,0.00,,---,0.00,VWS V14.00,2013-01-24 07:13:00,
2013-01-24 01:18:00,1.3,-6.2,30.45,NW,317,3.0,7.0,70,0.00,,---,0.00,VWS V14.00,2013-01-24 07:18:00,
2013-01-24 01:23:00,1.1,-6.4,30.46,NW,313,0.0,10.0,70,0.00,,---,0.00,VWS V14.00,2013-01-24 07:23:00,
2013-01-24 01:28:00,1.0,-6.2,30.46,WNW,284,3.0,10.0,71,0.00,,---,0.00,VWS V14.00,2013-01-24 07:28:00,
2013-01-24 01:33:00,0.9,-6.3,30.46,NW,314,3.0,5.0,71,0.00,,---,0.00,VWS V14.00,2013-01-24 07:33:00,
2013-01-24 01:39:00,0.8,-6.4,30.47,WNW,300,4.0,5.0,71,0.00,,---,0.00,VWS V14.00,2013-01-24 07:39:00,
2013-01-24 01:44:00,0.7,-6.5,30.47,NNW,340,1.0,5.0,71,0.00,,---,0.00,VWS V14.00,2013-01-24 07:44:00,
2013-01-24 01:49:00,0.6,-6.6,30.47,NNW,327,6.0,7.0,71,0.00,,---,0.00,VWS V14.00,2013-01-24 07:49:00,
2013-01-24 01:54:00,0.5,-6.7,30.48,NW,326,5.0,12.0,71,0.00,,---,0.00,VWS V14.00,2013-01-24 07:54:00,
2013-01-24 01:59:00,0.4,-6.8,30.48,NW,305,2.0,5.0,71,0.00,,---,0.00,VWS V14.00,2013-01-24 07:59:00,
2013-01-24 02:04:00,0.2,-6.7,30.48,NW,320,1.0,7.0,72,0.00,,---,0.00,VWS V14.00,2013-01-24 08:04:00,
2013-01-24 02:09:00,0.1,-6.8,30.48,NW,319,2.0,3.0,72,0.00,,---,0.00,VWS V14.00,2013-01-24 08:09:00,
2013-01-24 02:14:00,0.1,-6.9,30.47,NW,326,1.0,9.0,72,0.00,,---,0.00,VWS V14.00,2013-01-24 08:14:00,
2013-01-24 02:19:00,-0.1,-7.0,30.48,WNW,303,3.0,5.0,72,0.00,,---,0.00,VWS V14.00,2013-01-24 08:19:00,
2013-01-24 02:24:00,-0.3,-7.2,30.48,NW,311,3.0,7.0,72,0.00,,---,0.00,VWS V14.00,2013-01-24 08:24:00,
2013-01-24 02:29:00,-0.3,-6.9,30.48,NW,318,1.0,6.0,73,0.00,,---,0.00,VWS V14.00,2013-01-24 08:29:00,
2013-01-24 02:34:00,-0.4,-7.0,30.48,NNW,337,5.0,9.0,73,0.00,,---,0.00,VWS V14.00,2013-01-24 08:34:00,
2013-01-24 02:39:00,-0.5,-7.1,30.49,NW,312,2.0,5.0,73,0.00,,---,0.00,VWS V14.00,2013-01-24 08:39:00,
2013-01-24 02:44:00,-0.5,-7.1,30.49,NNW,341,2.0,9.0,73,0.00,,---,0.00,VWS V14.00,2013-01-24 08:44:00,
2013-01-24 02:49:00,-0.4,-7.0,30.49,NNW,342,1.0,10.0,73,0.00,,---,0.00,VWS V14.00,2013-01-24 08:49:00,
2013-01-24 02:54:00,-0.5,-7.1,30.49,NNW,332,1.0,7.0,73,0.00,,---,0.00,VWS V14.00,2013-01-24 08:54:00,
2013-01-24 02:59:00,-0.5,-7.1,30.49,NW,323,5.0,8.0,73,0.00,,---,0.00,VWS V14.00,2013-01-24 08:59:00,
2013-01-24 03:04:00,-0.5,-7.1,30.49,NW,321,0.0,4.0,73,0.00,,---,0.00,VWS V14.00,2013-01-24 09:04:00,
2013-01-24 03:09:00,-0.5,-7.1,30.50,NNW,338,2.0,4.0,73,0.00,,---,0.00,VWS V14.00,2013-01-24 09:09:00,
2013-01-24 03:14:00,-0.6,-7.2,30.50,NW,311,3.0,6.0,73,0.00,,---,0.00,VWS V14.00,2013-01-24 09:14:00,
2013-01-24 03:19:00,-0.5,-6.8,30.50,NNW,330,0.0,7.0,74,0.00,,---,0.00,VWS V14.00,2013-01-24 09:19:00,
2013-01-24 03:24:00,-0.5,-6.8,30.50,NNW,346,0.0,5.0,74,0.00,,---,0.00,VWS V14.00,2013-01-24 09:24:00,
2013-01-24 03:29:00,-0.6,-6.9,30.51,WNW,300,1.0,2.0,74,0.00,,---,0.00,VWS V14.00,2013-01-24 09:29:00,
2013-01-24 03:34:00,-0.6,-6.9,30.51,North,350,0.0,5.0,74,0.00,,---,0.00,VWS V14.00,2013-01-24 09:34:00,
2013-01-24 03:39:00,-0.6,-6.9,30.52,North,350,0.0,2.0,74,0.00,,---,0.00,VWS V14.00,2013-01-24 09:39:00,
2013-01-24 03:44:00,-0.6,-6.9,30.52,NNW,340,0.0,2.0,74,0.00,,---,0.00,VWS V14.00,2013-01-24 09:44:00,
2013-01-24 03:49:00,-0.7,-7.0,30.52,WNW,286,1.0,5.0,74,0.00,,---,0.00,VWS V14.00,2013-01-24 09:49:00,
2013-01-24 03:54:00,-0.6,-6.9,30.52,WNW,288,1.0,4.0,74,0.00,,---,0.00,VWS V14.00,2013-01-24 09:54:00,
2013-01-24 03:59:00,-0.7,-7.0,30.52,NW,326,0.0,3.0,74,0.00,,---,0.00,VWS V14.00,2013-01-24 09:59:00,
2013-01-24 04:04:00,-0.8,-7.1,30.52,NW,326,0.0,3.0,74,0.00,,---,0.00,VWS V14.00,2013-01-24 10:04:00,
2013-01-24 04:09:00,-0.8,-7.1,30.52,NW,322,1.0,4.0,74,0.00,,---,0.00,VWS V14.00,2013-01-24 10:09:00,
2013-01-24 04:14:00,-0.8,-7.1,30.53,NW,311,0.0,3.0,74,0.00,,---,0.00,VWS V14.00,2013-01-24 10:14:00,
2013-01-24 04:19:00,-0.7,-7.0,30.53,NW,307,0.0,4.0,74,0.00,,---,0.00,VWS V14.00,2013-01-24 10:19:00,
2013-01-24 04:24:00,-0.8,-7.1,30.53,NW,319,2.0,4.0,74,0.00,,---,0.00,VWS V14.00,2013-01-24 10:24:00,
2013-01-24 04:29:00,-0.8,-7.1,30.53,NW,311,1.0,4.0,74,0.00,,---,0.00,VWS V14.00,2013-01-24 10:29:00,
2013-01-24 04:34:00,-0.8,-6.8,30.53,North,355,0.0,4.0,75,0.00,,---,0.00,VWS V14.00,2013-01-24 10:34:00,
2013-01-24 04:40:00,-0.8,-6.8,30.53,NW,323,0.0,4.0,75,0.00,,---,0.00,VWS V14.00,2013-01-24 10:40:00,
2013-01-24 04:45:00,-0.7,-6.7,30.53,NNW,335,3.0,5.0,75,0.00,,---,0.00,VWS V14.00,2013-01-24 10:45:00,
2013-01-24 04:50:00,-0.7,-6.7,30.54,NW,323,2.0,5.0,75,0.00,,---,0.00,VWS V14.00,2013-01-24 10:50:00,
2013-01-24 04:55:00,-0.6,-6.6,30.54,NNW,335,4.0,6.0,75,0.00,,---,0.00,VWS V14.00,2013-01-24 10:55:00,
2013-01-24 05:00:00,-0.6,-6.6,30.55,NW,325,2.0,4.0,75,0.00,,---,0.00,VWS V14.00,2013-01-24 11:00:00,
2013-01-24 05:05:00,-0.6,-6.9,30.55,NW,321,0.0,1.0,74,0.00,,---,0.00,VWS V14.00,2013-01-24 11:05:00,
2013-01-24 05:10:00,-0.7,-6.7,30.55,NW,319,1.0,5.0,75,0.00,,---,0.00,VWS V14.00,2013-01-24 11:10:00,
2013-01-24 05:15:00,-0.7,-6.7,30.55,NW,313,0.0,0.0,75,0.00,,---,0.00,VWS V14.00,2013-01-24 11:15:00,
2013-01-24 05:20:00,-0.7,-6.7,30.55,NNW,329,0.0,0.0,75,0.00,,---,0.00,VWS V14.00,2013-01-24 11:20:00,
2013-01-24 05:25:00,-0.7,-6.7,30.55,NNW,341,0.0,0.0,75,0.00,,---,0.00,VWS V14.00,2013-01-24 11:25:00,
2013-01-24 05:30:00,-0.7,-6.7,30.55,NW,315,0.0,0.0,75,0.00,,---,0.00,VWS V14.00,2013-01-24 11:30:00,
2013-01-24 05:35:00,-0.8,-6.8,30.55,NW,314,0.0,0.0,75,0.00,,---,0.00,VWS V14.00,2013-01-24 11:35:00,
2013-01-24 05:40:00,-0.8,-6.8,30.55,NW,313,0.0,0.0,75,0.00,,---,0.00,VWS V14.00,2013-01-24 11:40:00,
2013-01-24 05:45:00,-0.9,-6.9,30.55,NW,313,0.0,0.0,75,0.00,,---,0.00,VWS V14.00,2013-01-24 11:45:00,
2013-01-24 05:50:00,-0.9,-6.9,30.56,NW,326,1.0,1.0,75,0.00,,---,0.00,VWS V14.00,2013-01-24 11:50:00,
2013-01-24 05:55:00,-0.8,-6.8,30.56,NW,308,0.0,0.0,75,0.00,,---,0.00,VWS V14.00,2013-01-24 11:55:00,
2013-01-24 06:00:00,-0.9,-6.9,30.56,NW,307,0.0,0.0,75,0.00,,---,0.00,VWS V14.00,2013-01-24 12:00:00,
2013-01-24 06:05:00,-0.9,-6.9,30.56,NW,308,0.0,0.0,75,0.00,,---,0.00,VWS V14.00,2013-01-24 12:05:00,
2013-01-24 06:10:00,-0.9,-6.6,30.56,NW,309,1.0,2.0,76,0.00,,---,0.00,VWS V14.00,2013-01-24 12:10:00,
2013-01-24 06:15:00,-0.9,-6.6,30.56,WNW,300,0.0,2.0,76,0.00,,---,0.00,VWS V14.00,2013-01-24 12:15:00,
2013-01-24 06:20:00,-1.0,-6.7,30.56,WNW,296,1.0,2.0,76,0.00,,---,0.00,VWS V14.00,2013-01-24 12:20:00,
2013-01-24 06:25:00,-0.9,-6.6,30.57,NW,307,0.0,0.0,76,0.00,,---,0.00,VWS V14.00,2013-01-24 12:25:00,
2013-01-24 06:30:00,-1.0,-6.7,30.57,NW,306,0.0,2.0,76,0.00,,---,0.00,VWS V14.00,2013-01-24 12:30:00,
2013-01-24 06:35:00,-1.0,-6.7,30.57,NW,306,0.0,2.0,76,0.00,,---,0.00,VWS V14.00,2013-01-24 12:35:00,
2013-01-24 06:40:00,-1.0,-6.7,30.56,NW,306,0.0,0.0,76,0.00,,---,0.00,VWS V14.00,2013-01-24 12:40:00,
2013-01-24 06:45:00,-1.0,-6.7,30.57,NW,306,0.0,0.0,76,0.00,,---,0.00,VWS V14.00,2013-01-24 12:45:00,
2013-01-24 06:50:00,-1.0,-6.7,30.57,NW,306,0.0,0.0,76,0.00,,---,0.00,VWS V14.00,2013-01-24 12:50:00,
2013-01-24 06:55:00,-1.0,-6.7,30.57,NNW,337,0.0,2.0,76,0.00,,---,0.00,VWS V14.00,2013-01-24 12:55:00,
2013-01-24 07:01:00,-1.0,-6.7,30.57,NNW,337,1.0,3.0,76,0.00,,---,0.00,VWS V14.00,2013-01-24 13:01:00,
2013-01-24 07:06:00,-1.0,-6.5,30.57,NNW,327,0.0,1.0,77,0.00,,---,0.00,VWS V14.00,2013-01-24 13:06:00,
2013-01-24 07:11:00,-1.0,-6.5,30.58,NNW,328,0.0,1.0,77,0.00,,---,0.00,VWS V14.00,2013-01-24 13:11:00,
2013-01-24 07:16:00,-1.0,-6.5,30.58,NNW,328,0.0,0.0,77,0.00,,---,0.00,VWS V14.00,2013-01-24 13:16:00,
2013-01-24 07:21:00,-1.0,-6.5,30.58,NNW,328,0.0,0.0,77,0.00,,---,0.00,VWS V14.00,2013-01-24 13:21:00,
2013-01-24 07:26:00,-1.0,-6.7,30.58,NNW,328,0.0,0.0,76,0.00,,---,0.00,VWS V14.00,2013-01-24 13:26:00,
2013-01-24 07:31:00,-1.0,-6.5,30.58,NNW,328,0.0,0.0,77,0.00,,---,0.00,VWS V14.00,2013-01-24 13:31:00,
2013-01-24 07:36:00,-0.9,-6.6,30.59,NNW,328,0.0,0.0,76,0.00,,---,0.00,VWS V14.00,2013-01-24 13:36:00,
2013-01-24 07:41:00,-0.9,-6.6,30.59,NNW,328,0.0,0.0,76,0.00,,---,0.00,VWS V14.00,2013-01-24 13:41:00,
2013-01-24 07:46:00,-0.8,-6.5,30.59,NNW,328,0.0,0.0,76,0.00,,---,0.00,VWS V14.00,2013-01-24 13:46:00,
2013-01-24 07:51:00,-0.7,-6.4,30.59,NNW,328,0.0,0.0,76,0.00,,---,0.00,VWS V14.00,2013-01-24 13:51:00,
2013-01-24 07:56:00,-0.6,-6.3,30.60,NNW,328,2.0,2.0,76,0.00,,---,0.00,VWS V14.00,2013-01-24 13:56:00,
2013-01-24 08:01:00,-0.5,-6.2,30.60,North,355,0.0,3.0,76,0.00,,---,0.00,VWS V14.00,2013-01-24 14:01:00,
2013-01-24 08:06:00,-0.3,-6.3,30.60,NW,319,2.0,4.0,75,0.00,,---,0.00,VWS V14.00,2013-01-24 14:06:00,
2013-01-24 08:11:00,-0.1,-6.1,30.61,NW,319,1.0,2.0,75,0.00,,---,0.00,VWS V14.00,2013-01-24 14:11:00,
2013-01-24 08:16:00,-0.1,-6.0,30.61,NNW,331,3.0,5.0,75,0.00,,---,0.00,VWS V14.00,2013-01-24 14:16:00,
2013-01-24 08:21:00,0.2,-5.8,30.61,WNW,298,2.0,4.0,75,0.00,,---,0.00,VWS V14.00,2013-01-24 14:21:00,
2013-01-24 08:26:00,0.3,-6.0,30.61,NW,323,0.0,1.0,74,0.00,,---,0.00,VWS V14.00,2013-01-24 14:26:00,
2013-01-24 08:31:00,0.4,-5.9,30.61,NNW,328,0.0,0.0,74,0.00,,---,0.00,VWS V14.00,2013-01-24 14:31:00,
2013-01-24 08:36:00,0.6,-5.7,30.61,NNW,332,0.0,2.0,74,0.00,,---,0.00,VWS V14.00,2013-01-24 14:36:00,
2013-01-24 08:41:00,0.8,-5.5,30.61,NNW,336,1.0,3.0,74,0.00,,---,0.00,VWS V14.00,2013-01-24 14:41:00,
2013-01-24 08:46:00,1.0,-5.6,30.61,NW,321,1.0,3.0,73,0.00,,---,0.00,VWS V14.00,2013-01-24 14:46:00,
2013-01-24 08:51:00,1.3,-5.3,30.61,NNE,33,3.0,3.0,73,0.00,,---,0.00,VWS V14.00,2013-01-24 14:51:00,
2013-01-24 08:56:00,1.6,-5.3,30.61,North,360,1.0,2.0,72,0.00,,---,0.00,VWS V14.00,2013-01-24 14:56:00,
2013-01-24 09:01:00,1.7,-5.2,30.61,NNE,30,0.0,2.0,72,0.00,,---,0.00,VWS V14.00,2013-01-24 15:01:00,
2013-01-24 09:06:00,1.9,-5.0,30.61,NNW,342,0.0,5.0,72,0.00,,---,0.00,VWS V14.00,2013-01-24 15:06:00,
2013-01-24 09:11:00,2.1,-5.1,30.61,North,360,0.0,3.0,71,0.00,,---,0.00,VWS V14.00,2013-01-24 15:11:00,
2013-01-24 09:16:00,2.2,-5.0,30.61,East,88,0.0,1.0,71,0.00,,---,0.00,VWS V14.00,2013-01-24 15:16:00,
2013-01-24 09:21:00,2.4,-5.1,30.61,ENE,64,1.0,5.0,70,0.00,,---,0.00,VWS V14.00,2013-01-24 15:21:00,
2013-01-24 09:27:00,2.7,-4.8,30.61,East,94,0.0,2.0,70,0.00,,---,0.00,VWS V14.00,2013-01-24 15:27:00,
2013-01-24 09:32:00,2.9,-4.9,30.61,ENE,57,0.0,4.0,69,0.00,,---,0.00,VWS V14.00,2013-01-24 15:32:00,
2013-01-24 09:37:00,3.0,-5.2,30.61,ENE,70,2.0,4.0,68,0.00,,---,0.00,VWS V14.00,2013-01-24 15:37:00,
2013-01-24 09:42:00,3.3,-4.9,30.60,ENE,74,4.0,4.0,68,0.00,,---,0.00,VWS V14.00,2013-01-24 15:42:00,
2013-01-24 09:47:00,3.4,-5.1,30.60,NNE,12,4.0,5.0,67,0.00,,---,0.00,VWS V14.00,2013-01-24 15:47:00,
2013-01-24 09:52:00,3.5,-5.0,30.60,East,84,1.0,3.0,67,0.00,,---,0.00,VWS V14.00,2013-01-24 15:52:00,
2013-01-24 09:57:00,3.7,-4.8,30.60,NNE,21,1.0,9.0,67,0.00,,---,0.00,VWS V14.00,2013-01-24 15:57:00,
2013-01-24 10:02:00,3.9,-4.9,30.61,NE,55,1.0,5.0,66,0.00,,---,0.00,VWS V14.00,2013-01-24 16:02:00,
2013-01-24 10:07:00,4.2,-4.3,30.60,ENE,64,0.0,3.0,67,0.00,,---,0.00,VWS V14.00,2013-01-24 16:07:00,
2013-01-24 10:12:00,4.4,-4.1,30.60,NE,38,1.0,4.0,67,0.00,,---,0.00,VWS V14.00,2013-01-24 16:12:00,
2013-01-24 10:17:00,4.3,-4.5,30.60,NE,43,1.0,4.0,66,0.00,,---,0.00,VWS V14.00,2013-01-24 16:17:00,
2013-01-24 10:22:00,4.4,-4.1,30.60,ENE,75,3.0,7.0,67,0.00,,---,0.00,VWS V14.00,2013-01-24 16:22:00,
2013-01-24 10:27:00,4.2,-4.3,30.61,ESE,119,2.0,7.0,67,0.00,,---,0.00,VWS V14.00,2013-01-24 16:27:00,
2013-01-24 10:32:00,4.3,-4.2,30.60,ESE,119,5.0,5.0,67,0.00,,---,0.00,VWS V14.00,2013-01-24 16:32:00,
2013-01-24 10:37:00,4.4,-4.1,30.60,East,79,1.0,5.0,67,0.00,,---,0.00,VWS V14.00,2013-01-24 16:37:00,
2013-01-24 10:42:00,4.3,-4.2,30.60,East,82,2.0,4.0,67,0.00,,---,0.00,VWS V14.00,2013-01-24 16:42:00,
2013-01-24 10:47:00,4.4,-3.8,30.60,ENE,57,0.0,4.0,68,0.00,,---,0.00,VWS V14.00,2013-01-24 16:47:00,
2013-01-24 10:52:00,4.5,-3.7,30.60,ENE,63,0.0,4.0,68,0.00,,---,0.00,VWS V14.00,2013-01-24 16:52:00,
2013-01-24 10:57:00,4.7,-3.2,30.60,ESE,123,0.0,0.0,69,0.00,,---,0.00,VWS V14.00,2013-01-24 16:57:00,
2013-01-24 11:02:00,4.9,-3.0,30.60,ESE,105,3.0,3.0,69,0.00,,---,0.00,VWS V14.00,2013-01-24 17:02:00,
2013-01-24 11:07:00,4.8,-3.1,30.60,East,92,1.0,4.0,69,0.00,,---,0.00,VWS V14.00,2013-01-24 17:07:00,
2013-01-24 11:12:00,4.8,-3.1,30.60,SE,130,1.0,4.0,69,0.00,,---,0.00,VWS V14.00,2013-01-24 17:12:00,
2013-01-24 11:17:00,4.8,-2.8,30.59,East,87,0.0,4.0,70,0.00,,---,0.00,VWS V14.00,2013-01-24 17:17:00,
2013-01-24 11:22:00,5.1,-2.2,30.58,ESE,107,1.0,5.0,71,0.00,,---,0.00,VWS V14.00,2013-01-24 17:22:00,
2013-01-24 11:27:00,5.3,-2.0,30.58,SE,130,2.0,3.0,71,0.00,,---,0.00,VWS V14.00,2013-01-24 17:27:00,
2013-01-24 11:32:00,5.4,-2.2,30.58,ESE,121,2.0,4.0,70,0.00,,---,0.00,VWS V14.00,2013-01-24 17:32:00,
2013-01-24 11:37:00,5.3,-2.3,30.58,ESE,102,1.0,3.0,70,0.00,,---,0.00,VWS V14.00,2013-01-24 17:37:00,
2013-01-24 11:42:00,5.6,-1.8,30.58,SE,126,1.0,3.0,71,0.00,,---,0.00,VWS V14.00,2013-01-24 17:42:00,
2013-01-24 11:47:00,5.8,-1.6,30.58,ESE,114,2.0,5.0,71,0.00,,---,0.00,VWS V14.00,2013-01-24 17:47:00,
2013-01-24 11:52:00,5.9,-1.5,30.58,ESE,117,2.0,5.0,71,0.00,,---,0.00,VWS V14.00,2013-01-24 17:52:00,
2013-01-24 11:57:00,5.9,-1.8,30.58,ESE,118,0.0,1.0,70,0.00,,---,0.00,VWS V14.00,2013-01-24 17:57:00,
2013-01-24 12:02:00,6.3,-1.1,30.57,East,96,0.0,3.0,71,0.00,,---,0.00,VWS V14.00,2013-01-24 18:02:00,
2013-01-24 12:07:00,6.4,-1.3,30.57,ENE,57,0.0,4.0,70,0.00,,---,0.00,VWS V14.00,2013-01-24 18:07:00,
2013-01-24 12:12:00,6.7,-1.0,30.57,ENE,78,0.0,1.0,70,0.00,,---,0.00,VWS V14.00,2013-01-24 18:12:00,
2013-01-24 12:17:00,6.8,-0.9,30.57,SSE,148,0.0,2.0,70,0.00,,---,0.00,VWS V14.00,2013-01-24 18:17:00,
2013-01-24 12:22:00,7.1,-0.9,30.57,East,82,1.0,2.0,69,0.00,,---,0.00,VWS V14.00,2013-01-24 18:22:00,
2013-01-24 12:27:00,7.2,1.2,30.56,ENE,61,0.0,0.0,76,0.00,,---,0.00,VWS V14.00,2013-01-24 18:27:00,
2013-01-24 12:32:00,7.2,-1.1,30.56,ENE,60,0.0,3.0,68,0.00,,---,0.00,VWS V14.00,2013-01-24 18:32:00,
2013-01-24 12:37:00,7.5,-0.5,30.56,ENE,61,0.0,1.0,69,0.00,,---,0.00,VWS V14.00,2013-01-24 18:37:00,
2013-01-24 12:42:00,7.6,-1.0,30.55,ENE,61,0.0,2.0,67,0.00,,---,0.00,VWS V14.00,2013-01-24 18:42:00,
2013-01-24 12:47:00,7.7,-0.6,30.55,ENE,61,0.0,3.0,68,0.00,,---,0.00,VWS V14.00,2013-01-24 18:47:00,
2013-01-24 12:53:00,8.0,-0.4,30.55,ENE,57,0.0,3.0,68,0.00,,---,0.00,VWS V14.00,2013-01-24 18:53:00,
2013-01-24 12:58:00,8.0,-0.7,30.54,ENE,57,0.0,1.0,67,0.00,,---,0.00,VWS V14.00,2013-01-24 18:58:00,
2013-01-24 13:03:00,8.2,-0.5,30.54,ENE,59,0.0,1.0,67,0.00,,---,0.00,VWS V14.00,2013-01-24 19:03:00,
2013-01-24 13:08:00,8.2,-0.8,30.54,ENE,59,0.0,2.0,66,0.00,,---,0.00,VWS V14.00,2013-01-24 19:08:00,
2013-01-24 13:13:00,8.2,-1.1,30.54,ENE,59,0.0,0.0,65,0.00,,---,0.00,VWS V14.00,2013-01-24 19:13:00,
2013-01-24 13:18:00,8.4,-0.9,30.53,ENE,75,0.0,2.0,65,0.00,,---,0.00,VWS V14.00,2013-01-24 19:18:00,
2013-01-24 13:23:00,8.6,-0.4,30.53,East,82,0.0,0.0,66,0.00,,---,0.00,VWS V14.00,2013-01-24 19:23:00,
2013-01-24 13:28:00,9.0,0.0,30.53,East,95,0.0,2.0,66,0.00,,---,0.00,VWS V14.00,2013-01-24 19:28:00,
2013-01-24 13:33:00,9.1,-0.3,30.52,East,90,0.0,0.0,65,0.00,,---,0.00,VWS V14.00,2013-01-24 19:33:00,
2013-01-24 13:38:00,9.3,-0.1,30.52,South,178,0.0,2.0,65,0.00,,---,0.00,VWS V14.00,2013-01-24 19:38:00,
2013-01-24 13:43:00,9.4,0.0,30.51,SE,145,0.0,1.0,65,0.00,,---,0.00,VWS V14.00,2013-01-24 19:43:00,
2013-01-24 13:48:00,9.4,-0.3,30.51,ENE,61,0.0,3.0,64,0.00,,---,0.00,VWS V14.00,2013-01-24 19:48:00,
2013-01-24 13:53:00,9.7,0.3,30.50,ENE,71,0.0,1.0,65,0.00,,---,0.00,VWS V14.00,2013-01-24 19:53:00,
2013-01-24 13:58:00,9.9,0.5,30.51,East,79,1.0,1.0,65,0.00,,---,0.00,VWS V14.00,2013-01-24 19:58:00,
2013-01-24 14:03:00,10.1,0.4,30.51,ENE,65,0.0,3.0,64,0.00,,---,0.00,VWS V14.00,2013-01-24 20:03:00,
2013-01-24 14:08:00,10.2,0.5,30.51,East,92,0.0,3.0,64,0.00,,---,0.00,VWS V14.00,2013-01-24 20:08:00,
2013-01-24 14:13:00,10.3,0.6,30.51,East,82,0.0,2.0,64,0.00,,---,0.00,VWS V14.00,2013-01-24 20:13:00,
2013-01-24 14:18:00,10.3,0.6,30.50,East,94,0.0,1.0,64,0.00,,---,0.00,VWS V14.00,2013-01-24 20:18:00,
2013-01-24 14:23:00,10.3,0.6,30.50,East,83,0.0,2.0,64,0.00,,---,0.00,VWS V14.00,2013-01-24 20:23:00,
2013-01-24 14:28:00,10.4,0.6,30.50,East,82,0.0,1.0,64,0.00,,---,0.00,VWS V14.00,2013-01-24 20:28:00,
2013-01-24 14:33:00,10.6,1.2,30.50,ENE,59,0.0,2.0,65,0.00,,---,0.00,VWS V14.00,2013-01-24 20:33:00,
2013-01-24 14:38:00,10.6,0.8,30.50,East,90,0.0,2.0,64,0.00,,---,0.00,VWS V14.00,2013-01-24 20:38:00,
2013-01-24 14:43:00,10.7,0.9,30.50,East,88,0.0,0.0,64,0.00,,---,0.00,VWS V14.00,2013-01-24 20:43:00,
2013-01-24 14:48:00,10.7,0.9,30.51,ENE,66,2.0,3.0,64,0.00,,---,0.00,VWS V14.00,2013-01-24 20:48:00,
2013-01-24 14:53:00,10.4,0.6,30.50,ENE,65,0.0,1.0,64,0.00,,---,0.00,VWS V14.00,2013-01-24 20:53:00,
2013-01-24 14:58:00,10.4,0.6,30.51,ENE,65,0.0,2.0,64,0.00,,---,0.00,VWS V14.00,2013-01-24 20:58:00,
2013-01-24 15:03:00,10.5,1.1,30.50,ENE,66,0.0,0.0,65,0.00,,---,0.00,VWS V14.00,2013-01-24 21:03:00,
2013-01-24 15:08:00,10.6,1.2,30.50,ENE,66,1.0,1.0,65,0.00,,---,0.00,VWS V14.00,2013-01-24 21:08:00,
2013-01-24 15:13:00,10.7,1.3,30.50,ENE,66,0.0,1.0,65,0.00,,---,0.00,VWS V14.00,2013-01-24 21:13:00,
2013-01-24 15:18:00,10.7,1.3,30.49,ENE,66,0.0,2.0,65,0.00,,---,0.00,VWS V14.00,2013-01-24 21:18:00,
2013-01-24 15:23:00,10.7,1.3,30.48,NE,56,0.0,2.0,65,0.00,,---,0.00,VWS V14.00,2013-01-24 21:23:00,
2013-01-24 15:28:00,10.8,1.7,30.48,NE,55,0.0,1.0,66,0.00,,---,0.00,VWS V14.00,2013-01-24 21:28:00,
2013-01-24 15:33:00,10.7,1.3,30.48,NE,55,2.0,3.0,65,0.00,,---,0.00,VWS V14.00,2013-01-24 21:33:00,
2013-01-24 15:38:00,10.7,1.3,30.48,ENE,57,0.0,3.0,65,0.00,,---,0.00,VWS V14.00,2013-01-24 21:38:00,
2013-01-24 15:43:00,10.7,1.6,30.47,ENE,61,0.0,3.0,66,0.00,,---,0.00,VWS V14.00,2013-01-24 21:43:00,
2013-01-24 15:48:00,10.7,1.6,30.47,ESE,106,1.0,3.0,66,0.00,,---,0.00,VWS V14.00,2013-01-24 21:48:00,
2013-01-24 15:53:00,10.7,1.6,30.47,East,100,0.0,3.0,66,0.00,,---,0.00,VWS V14.00,2013-01-24 21:53:00,
2013-01-24 15:58:00,10.7,1.6,30.47,East,94,0.0,4.0,66,0.00,,---,0.00,VWS V14.00,2013-01-24 21:58:00,
2013-01-24 16:03:00,10.7,1.6,30.47,East,89,0.0,2.0,66,0.00,,---,0.00,VWS V14.00,2013-01-24 22:03:00,
2013-01-24 16:08:00,10.7,1.9,30.47,East,80,1.0,2.0,67,0.00,,---,0.00,VWS V14.00,2013-01-24 22:08:00,
2013-01-24 16:13:00,10.7,1.6,30.47,East,79,2.0,2.0,66,0.00,,---,0.00,VWS V14.00,2013-01-24 22:13:00,
2013-01-24 16:18:00,10.7,1.9,30.47,ESE,110,0.0,4.0,67,0.00,,---,0.00,VWS V14.00,2013-01-24 22:18:00,
2013-01-24 16:23:00,10.6,1.5,30.47,East,101,0.0,3.0,66,0.00,,---,0.00,VWS V14.00,2013-01-24 22:23:00,
2013-01-24 16:28:00,10.7,1.9,30.47,East,96,0.0,2.0,67,0.00,,---,0.00,VWS V14.00,2013-01-24 22:28:00,
2013-01-24 16:33:00,10.7,1.9,30.47,East,94,0.0,1.0,67,0.00,,---,0.00,VWS V14.00,2013-01-24 22:33:00,
2013-01-24 16:38:00,10.7,1.9,30.47,East,90,0.0,1.0,67,0.00,,---,0.00,VWS V14.00,2013-01-24 22:38:00,
2013-01-24 16:43:00,10.7,1.9,30.46,East,88,0.0,1.0,67,0.00,,---,0.00,VWS V14.00,2013-01-24 22:43:00,
2013-01-24 16:48:00,10.8,2.0,30.46,East,88,0.0,2.0,67,0.00,,---,0.00,VWS V14.00,2013-01-24 22:48:00,
2013-01-24 16:53:00,10.9,2.1,30.46,ESE,105,0.0,3.0,67,0.00,,---,0.00,VWS V14.00,2013-01-24 22:53:00,
2013-01-24 16:58:00,11.0,1.9,30.45,ESE,119,0.0,3.0,66,0.00,,---,0.00,VWS V14.00,2013-01-24 22:58:00,
2013-01-24 17:03:00,11.2,2.4,30.45,ENE,66,3.0,3.0,67,0.00,,---,0.00,VWS V14.00,2013-01-24 23:03:00,
2013-01-24 17:08:00,11.2,2.1,30.45,SE,128,2.0,5.0,66,0.00,,---,0.00,VWS V14.00,2013-01-24 23:08:00,
2013-01-24 17:13:00,11.2,2.1,30.45,ESE,121,3.0,4.0,66,0.00,,---,0.00,VWS V14.00,2013-01-24 23:13:00,
2013-01-24 17:18:00,11.2,2.1,30.45,ESE,103,0.0,3.0,66,0.00,,---,0.00,VWS V14.00,2013-01-24 23:18:00,
2013-01-24 17:23:00,11.2,2.4,30.44,ESE,118,3.0,4.0,67,0.00,,---,0.00,VWS V14.00,2013-01-24 23:23:00,
2013-01-24 17:28:00,11.3,2.8,30.44,ESE,112,0.0,5.0,68,0.00,,---,0.00,VWS V14.00,2013-01-24 23:28:00,
2013-01-24 17:33:00,11.3,2.8,30.44,ESE,115,2.0,5.0,68,0.00,,---,0.00,VWS V14.00,2013-01-24 23:33:00,
2013-01-24 17:38:00,11.4,2.9,30.43,ENE,59,4.0,5.0,68,0.00,,---,0.00,VWS V14.00,2013-01-24 23:38:00,
2013-01-24 17:43:00,11.3,2.5,30.43,ESE,120,1.0,6.0,67,0.00,,---,0.00,VWS V14.00,2013-01-24 23:43:00,
2013-01-24 17:49:00,11.3,2.8,30.42,SE,142,9.0,9.0,68,0.00,,---,0.00,VWS V14.00,2013-01-24 23:49:00,
2013-01-24 17:54:00,11.4,3.2,30.42,East,90,4.0,6.0,69,0.00,,---,0.00,VWS V14.00,2013-01-24 23:54:00,
2013-01-24 17:59:00,11.4,3.2,30.41,SE,137,2.0,5.0,69,0.00,,---,0.00,VWS V14.00,2013-01-24 23:59:00,
2013-01-24 18:04:00,11.6,3.4,30.41,ENE,60,2.0,4.0,69,0.00,,---,0.00,VWS V14.00,2013-01-25 00:04:00,
2013-01-24 18:09:00,11.6,3.4,30.41,ESE,103,0.0,5.0,69,0.00,,---,0.00,VWS V14.00,2013-01-25 00:09:00,
2013-01-24 18:14:00,11.6,3.7,30.40,ESE,114,0.0,6.0,70,0.00,,---,0.00,VWS V14.00,2013-01-25 00:14:00,
2013-01-24 18:19:00,11.6,3.7,30.40,East,80,1.0,6.0,70,0.00,,---,0.00,VWS V14.00,2013-01-25 00:19:00,
2013-01-24 18:24:00,11.6,3.7,30.40,ESE,104,2.0,4.0,70,0.00,,---,0.00,VWS V14.00,2013-01-25 00:24:00,
2013-01-24 18:29:00,11.7,3.5,30.40,SE,145,2.0,6.0,69,0.00,,---,0.00,VWS V14.00,2013-01-25 00:29:00,
2013-01-24 18:34:00,11.7,3.2,30.41,ESE,114,0.0,5.0,68,0.00,,---,0.00,VWS V14.00,2013-01-25 00:34:00,
2013-01-24 18:39:00,11.8,3.3,30.40,SE,134,1.0,4.0,68,0.00,,---,0.00,VWS V14.00,2013-01-25 00:39:00,
2013-01-24 18:44:00,11.8,3.3,30.40,SE,127,3.0,4.0,68,0.00,,---,0.00,VWS V14.00,2013-01-25 00:44:00,
2013-01-24 18:49:00,11.9,3.7,30.39,ESE,110,2.0,3.0,69,0.00,,---,0.00,VWS V14.00,2013-01-25 00:49:00,
2013-01-24 18:54:00,11.9,3.4,30.39,SE,134,2.0,7.0,68,0.00,,---,0.00,VWS V14.00,2013-01-25 00:54:00,
2013-01-24 18:59:00,12.0,3.5,30.39,ESE,122,2.0,4.0,68,0.00,,---,0.00,VWS V14.00,2013-01-25 00:59:00,
2013-01-24 19:04:00,12.0,3.5,30.39,SE,126,0.0,3.0,68,0.00,,---,0.00,VWS V14.00,2013-01-25 01:04:00,
2013-01-24 19:09:00,12.0,3.8,30.39,ESE,109,2.0,4.0,69,0.00,,---,0.00,VWS V14.00,2013-01-25 01:09:00,
2013-01-24 19:14:00,12.0,3.5,30.39,ESE,114,0.0,9.0,68,0.00,,---,0.00,VWS V14.00,2013-01-25 01:14:00,
2013-01-24 19:19:00,12.0,3.5,30.39,East,92,2.0,4.0,68,0.00,,---,0.00,VWS V14.00,2013-01-25 01:19:00,
2013-01-24 19:24:00,12.0,3.5,30.40,SE,136,2.0,3.0,68,0.00,,---,0.00,VWS V14.00,2013-01-25 01:24:00,
2013-01-24 19:29:00,12.1,3.6,30.39,ESE,123,0.0,3.0,68,0.00,,---,0.00,VWS V14.00,2013-01-25 01:29:00,
2013-01-24 19:34:00,12.1,3.6,30.39,ESE,122,0.0,2.0,68,0.00,,---,0.00,VWS V14.00,2013-01-25 01:34:00,
2013-01-24 19:39:00,12.1,3.6,30.39,SSE,157,1.0,2.0,68,0.00,,---,0.00,VWS V14.00,2013-01-25 01:39:00,
2013-01-24 19:44:00,12.2,3.7,30.38,SSE,154,0.0,6.0,68,0.00,,---,0.00,VWS V14.00,2013-01-25 01:44:00,
2013-01-24 19:49:00,12.2,3.7,30.39,SE,136,0.0,3.0,68,0.00,,---,0.00,VWS V14.00,2013-01-25 01:49:00,
2013-01-24 19:54:00,12.3,3.8,30.39,SE,136,0.0,1.0,68,0.00,,---,0.00,VWS V14.00,2013-01-25 01:54:00,
2013-01-24 19:59:00,12.4,3.9,30.39,SE,136,0.0,1.0,68,0.00,,---,0.00,VWS V14.00,2013-01-25 01:59:00,
2013-01-24 20:04:00,12.4,3.9,30.37,SE,136,0.0,2.0,68,0.00,,---,0.00,VWS V14.00,2013-01-25 02:04:00,
2013-01-24 20:09:00,12.5,4.0,30.37,SE,126,1.0,3.0,68,0.00,,---,0.00,VWS V14.00,2013-01-25 02:09:00,
2013-01-24 20:14:00,12.4,3.9,30.37,SE,125,0.0,3.0,68,0.00,,---,0.00,VWS V14.00,2013-01-25 02:14:00,
2013-01-24 20:19:00,12.5,4.3,30.37,SE,125,1.0,2.0,69,0.00,,---,0.00,VWS V14.00,2013-01-25 02:19:00,
2013-01-24 20:24:00,12.5,4.0,30.36,SE,126,1.0,2.0,68,0.00,,---,0.00,VWS V14.00,2013-01-25 02:24:00,
2013-01-24 20:29:00,12.5,4.0,30.36,SE,130,0.0,2.0,68,0.00,,---,0.00,VWS V14.00,2013-01-25 02:29:00,
2013-01-24 20:34:00,12.7,4.5,30.37,SE,130,0.0,2.0,69,0.00,,---,0.00,VWS V14.00,2013-01-25 02:34:00,
2013-01-24 20:39:00,12.7,4.5,30.36,SE,130,0.0,2.0,69,0.00,,---,0.00,VWS V14.00,2013-01-25 02:39:00,
2013-01-24 20:44:00,12.8,4.6,30.36,ESE,121,0.0,3.0,69,0.00,,---,0.00,VWS V14.00,2013-01-25 02:44:00,
2013-01-24 20:49:00,12.8,4.6,30.36,ESE,121,0.0,2.0,69,0.00,,---,0.00,VWS V14.00,2013-01-25 02:49:00,
2013-01-24 20:54:00,12.9,5.0,30.35,ESE,121,0.0,1.0,70,0.00,,---,0.00,VWS V14.00,2013-01-25 02:54:00,
2013-01-24 20:59:00,13.0,5.1,30.35,ESE,120,0.0,2.0,70,0.00,,---,0.00,VWS V14.00,2013-01-25 02:59:00,
2013-01-24 21:04:00,13.0,5.4,30.34,ESE,109,1.0,2.0,71,0.00,,---,0.00,VWS V14.00,2013-01-25 03:04:00,
2013-01-24 21:09:00,13.1,5.2,30.33,SE,142,2.0,2.0,70,0.00,,---,0.00,VWS V14.00,2013-01-25 03:09:00,
2013-01-24 21:14:00,13.0,5.1,30.33,ESE,115,1.0,4.0,70,0.00,,---,0.00,VWS V14.00,2013-01-25 03:14:00,
2013-01-24 21:19:00,13.0,5.1,30.32,ESE,119,3.0,5.0,70,0.00,,---,0.00,VWS V14.00,2013-01-25 03:19:00,
2013-01-24 21:24:00,13.1,5.2,30.31,SE,144,3.0,4.0,70,0.00,,---,0.00,VWS V14.00,2013-01-25 03:24:00,
2013-01-24 21:29:00,13.1,5.2,30.31,SE,129,3.0,6.0,70,0.00,,---,0.00,VWS V14.00,2013-01-25 03:29:00,
2013-01-24 21:34:00,13.3,5.7,30.31,SE,128,0.0,5.0,71,0.00,,---,0.00,VWS V14.00,2013-01-25 03:34:00,
2013-01-24 21:39:00,13.4,5.8,30.30,SE,141,6.0,9.0,71,0.00,,---,0.00,VWS V14.00,2013-01-25 03:39:00,
2013-01-24 21:44:00,13.5,5.9,30.30,SE,124,2.0,7.0,71,0.00,,---,0.00,VWS V14.00,2013-01-25 03:44:00,
2013-01-24 21:49:00,13.6,6.0,30.30,SE,145,3.0,7.0,71,0.00,,---,0.00,VWS V14.00,2013-01-25 03:49:00,
2013-01-24 21:54:00,13.7,6.1,30.29,South,170,2.0,7.0,71,0.00,,---,0.00,VWS V14.00,2013-01-25 03:54:00,
2013-01-24 21:59:00,13.8,6.5,30.29,SE,128,4.0,10.0,72,0.00,,---,0.00,VWS V14.00,2013-01-25 03:59:00,
2013-01-24 22:04:00,13.9,6.2,30.29,SE,124,4.0,6.0,71,0.00,,---,0.00,VWS V14.00,2013-01-25 04:04:00,
2013-01-24 22:09:00,14.0,6.7,30.30,SE,132,3.0,5.0,72,0.00,,---,0.00,VWS V14.00,2013-01-25 04:09:00,
2013-01-24 22:14:00,14.1,6.8,30.29,ESE,103,5.0,8.0,72,0.00,,---,0.00,VWS V14.00,2013-01-25 04:14:00,
2013-01-24 22:19:00,14.2,7.2,30.29,SE,134,4.0,6.0,73,0.00,,---,0.00,VWS V14.00,2013-01-25 04:19:00,
2013-01-24 22:24:00,14.4,7.0,30.29,SE,138,3.0,8.0,72,0.00,,---,0.00,VWS V14.00,2013-01-25 04:24:00,
2013-01-24 22:29:00,14.4,7.3,30.29,SE,134,2.0,10.0,73,0.00,,---,0.00,VWS V14.00,2013-01-25 04:29:00,
2013-01-24 22:34:00,14.6,7.5,30.29,SE,128,2.0,7.0,73,0.00,,---,0.00,VWS V14.00,2013-01-25 04:34:00,
2013-01-24 22:39:00,14.6,7.5,30.30,SE,130,3.0,6.0,73,0.00,,---,0.00,VWS V14.00,2013-01-25 04:39:00,
2013-01-24 22:44:00,14.8,7.7,30.30,South,186,2.0,5.0,73,0.00,,---,0.00,VWS V14.00,2013-01-25 04:44:00,
2013-01-24 22:49:00,14.8,7.7,30.30,ESE,103,1.0,4.0,73,0.00,,---,0.00,VWS V14.00,2013-01-25 04:49:00,
2013-01-24 22:54:00,14.8,8.0,30.29,SE,127,2.0,6.0,74,0.00,,---,0.00,VWS V14.00,2013-01-25 04:54:00,
2013-01-24 22:59:00,14.8,8.0,30.30,SE,125,0.0,4.0,74,0.00,,---,0.00,VWS V14.00,2013-01-25 04:59:00,
2013-01-24 23:00:00,14.8,8.0,30.30,SE,126,0.0,4.0,74,0.00,,---,0.00,VWS V14.00,2013-01-25 05:00:00,
2013-01-24 23:03:00,14.8,8.0,30.30,ESE,123,2.0,2.0,74,0.00,,---,0.00,VWS V14.00,2013-01-25 05:03:00,
2013-01-24 23:08:00,14.9,8.1,30.30,SE,132,2.0,4.0,74,0.00,,---,0.00,VWS V14.00,2013-01-25 05:08:00,
2013-01-24 23:13:00,15.0,8.2,30.30,ESE,123,3.0,5.0,74,0.00,,---,0.00,VWS V14.00,2013-01-25 05:13:00,
2013-01-24 23:18:00,15.0,8.5,30.29,ESE,113,1.0,3.0,75,0.00,,---,0.00,VWS V14.00,2013-01-25 05:18:00,
2013-01-24 23:23:00,15.0,8.5,30.28,ESE,120,4.0,4.0,75,0.00,,---,0.00,VWS V14.00,2013-01-25 05:23:00,
2013-01-24 23:28:00,15.1,8.6,30.28,ESE,112,4.0,5.0,75,0.00,,---,0.00,VWS V14.00,2013-01-25 05:28:00,
2013-01-24 23:33:00,15.1,8.6,30.27,SE,145,0.0,4.0,75,0.00,,---,0.00,VWS V14.00,2013-01-25 05:33:00,
2013-01-24 23:38:00,15.2,8.7,30.27,ESE,121,2.0,5.0,75,0.00,,---,0.00,VWS V14.00,2013-01-25 05:38:00,
2013-01-24 23:43:00,15.2,8.7,30.27,ESE,117,3.0,6.0,75,0.00,,---,0.00,VWS V14.00,2013-01-25 05:43:00,
2013-01-24 23:48:00,15.3,9.1,30.27,SE,144,1.0,4.0,76,0.00,,---,0.00,VWS V14.00,2013-01-25 05:48:00,
2013-01-24 23:53:00,15.4,9.2,30.27,ESE,121,0.0,2.0,76,0.00,,---,0.00,VWS V14.00,2013-01-25 05:53:00,
2013-01-24 23:58:00,15.5,9.3,30.27,SE,141,0.0,3.0,76,0.00,,---,0.00,VWS V14.00,2013-01-25 05:58:00,